sensor_id;sensor_type;location;lat;lon;timestamp;pressure;altitude;pressure_sealevel;temperature;humidity
73455;BME280;61690;51.824;6.306;2023-04-27T00:00:20;101971.34;;;17.19;48.32
73455;BME280;61690;51.824;6.306;2023-04-27T00:02:45;101972.50;;;17.12;48.63
73455;BME280;61690;51.824;6.306;2023-04-27T00:05:11;101970.88;;;17.09;48.35
73455;BME280;61690;51.824;6.306;2023-04-27T00:07:37;101973.31;;;17.14;48.23
73455;BME280;61690;51.824;6.306;2023-04-27T00:10:02;101974.41;;;17.08;48.38
73455;BME280;61690;51.824;6.306;2023-04-27T00:12:28;101979.66;;;17.08;48.17
73455;BME280;61690;51.824;6.306;2023-04-27T00:14:54;101974.69;;;17.02;48.39
73455;BME280;61690;51.824;6.306;2023-04-27T00:17:20;101980.94;;;16.99;48.32
73455;BME280;61690;51.824;6.306;2023-04-27T00:19:45;101978.94;;;17.04;48.09
73455;BME280;61690;51.824;6.306;2023-04-27T00:22:11;101974.69;;;17.02;48.50
73455;BME280;61690;51.824;6.306;2023-04-27T00:24:39;101979.03;;;17.03;48.27
73455;BME280;61690;51.824;6.306;2023-04-27T00:27:06;101989.66;;;17.00;48.37
73455;BME280;61690;51.824;6.306;2023-04-27T00:29:31;101996.75;;;16.98;48.57
73455;BME280;61690;51.824;6.306;2023-04-27T00:31:56;102004.63;;;16.98;48.36
73455;BME280;61690;51.824;6.306;2023-04-27T00:34:21;101995.97;;;16.96;48.39
73455;BME280;61690;51.824;6.306;2023-04-27T00:36:47;101991.59;;;16.95;48.69
73455;BME280;61690;51.824;6.306;2023-04-27T00:39:12;101997.81;;;16.94;48.35
73455;BME280;61690;51.824;6.306;2023-04-27T00:41:39;101998.44;;;16.99;48.47
73455;BME280;61690;51.824;6.306;2023-04-27T00:44:04;102004.09;;;16.90;48.60
73455;BME280;61690;51.824;6.306;2023-04-27T00:46:31;102001.47;;;16.90;48.57
73455;BME280;61690;51.824;6.306;2023-04-27T00:48:57;102000.69;;;16.88;48.51
73455;BME280;61690;51.824;6.306;2023-04-27T00:51:23;101992.47;;;16.95;48.51
73455;BME280;61690;51.824;6.306;2023-04-27T00:53:52;101998.06;;;16.88;48.70
73455;BME280;61690;51.824;6.306;2023-04-27T00:56:18;101998.75;;;16.91;48.33
73455;BME280;61690;51.824;6.306;2023-04-27T00:58:43;101994.59;;;16.85;48.51
73455;BME280;61690;51.824;6.306;2023-04-27T01:01:09;101992.19;;;16.79;48.50
73455;BME280;61690;51.824;6.306;2023-04-27T01:03:35;101993.97;;;16.79;48.83
73455;BME280;61690;51.824;6.306;2023-04-27T01:06:00;101998.22;;;16.83;48.35
73455;BME280;61690;51.824;6.306;2023-04-27T01:08:27;102001.91;;;16.77;48.57
73455;BME280;61690;51.824;6.306;2023-04-27T01:10:53;101996.66;;;16.77;48.80
73455;BME280;61690;51.824;6.306;2023-04-27T01:13:18;102002.75;;;16.78;48.64
73455;BME280;61690;51.824;6.306;2023-04-27T01:15:43;102007.22;;;16.76;48.97
73455;BME280;61690;51.824;6.306;2023-04-27T01:18:17;102009.84;;;16.76;48.88
73455;BME280;61690;51.824;6.306;2023-04-27T01:20:43;102004.41;;;16.82;48.28
73455;BME280;61690;51.824;6.306;2023-04-27T01:23:12;102000.44;;;16.70;48.76
73455;BME280;61690;51.824;6.306;2023-04-27T01:25:38;102008.94;;;16.77;48.78
73455;BME280;61690;51.824;6.306;2023-04-27T01:28:03;102015.41;;;16.68;48.53
73455;BME280;61690;51.824;6.306;2023-04-27T01:30:29;102004.78;;;16.71;48.76
73455;BME280;61690;51.824;6.306;2023-04-27T01:32:55;102001.19;;;16.74;48.25
73455;BME280;61690;51.824;6.306;2023-04-27T01:35:20;102002.28;;;16.68;48.76
73455;BME280;61690;51.824;6.306;2023-04-27T01:37:46;101995.34;;;16.67;48.83
73455;BME280;61690;51.824;6.306;2023-04-27T01:40:11;102002.16;;;16.71;48.29
73455;BME280;61690;51.824;6.306;2023-04-27T01:42:37;101991.56;;;16.74;48.41
73455;BME280;61690;51.824;6.306;2023-04-27T01:45:06;101997.91;;;16.69;48.50
73455;BME280;61690;51.824;6.306;2023-04-27T01:47:31;102002.22;;;16.70;48.44
73455;BME280;61690;51.824;6.306;2023-04-27T01:49:57;102008.28;;;16.72;48.63
73455;BME280;61690;51.824;6.306;2023-04-27T01:52:22;102008.22;;;16.73;48.45
73455;BME280;61690;51.824;6.306;2023-04-27T01:54:48;102001.69;;;16.61;48.83
73455;BME280;61690;51.824;6.306;2023-04-27T01:57:15;102010.31;;;16.65;48.48
73455;BME280;61690;51.824;6.306;2023-04-27T01:59:40;102009.50;;;16.63;48.51
73455;BME280;61690;51.824;6.306;2023-04-27T02:02:06;102002.53;;;16.62;48.74
73455;BME280;61690;51.824;6.306;2023-04-27T02:04:32;101995.59;;;16.61;48.59
73455;BME280;61690;51.824;6.306;2023-04-27T02:06:57;101991.13;;;16.63;48.50
73455;BME280;61690;51.824;6.306;2023-04-27T02:09:23;101995.69;;;16.58;48.71
73455;BME280;61690;51.824;6.306;2023-04-27T02:11:48;101997.34;;;16.60;48.43
73455;BME280;61690;51.824;6.306;2023-04-27T02:14:13;101994.84;;;16.57;48.69
73455;BME280;61690;51.824;6.306;2023-04-27T02:16:38;101988.84;;;16.54;48.53
73455;BME280;61690;51.824;6.306;2023-04-27T02:19:04;101997.53;;;16.56;49.21
73455;BME280;61690;51.824;6.306;2023-04-27T02:21:30;101998.44;;;16.55;48.82
73455;BME280;61690;51.824;6.306;2023-04-27T02:23:55;102000.34;;;16.51;48.70
73455;BME280;61690;51.824;6.306;2023-04-27T02:26:21;101992.56;;;16.48;48.60
73455;BME280;61690;51.824;6.306;2023-04-27T02:28:53;101993.16;;;16.55;48.70
73455;BME280;61690;51.824;6.306;2023-04-27T02:31:18;101992.47;;;16.51;48.73
73455;BME280;61690;51.824;6.306;2023-04-27T02:33:43;101986.34;;;16.51;48.66
73455;BME280;61690;51.824;6.306;2023-04-27T02:36:09;101975.72;;;16.54;48.60
73455;BME280;61690;51.824;6.306;2023-04-27T02:38:34;101982.06;;;16.48;48.69
73455;BME280;61690;51.824;6.306;2023-04-27T02:41:00;101991.78;;;16.46;48.65
73455;BME280;61690;51.824;6.306;2023-04-27T02:43:26;101982.91;;;16.49;48.53
73455;BME280;61690;51.824;6.306;2023-04-27T02:45:51;101990.78;;;16.49;48.70
73455;BME280;61690;51.824;6.306;2023-04-27T02:48:19;101982.97;;;16.47;48.65
73455;BME280;61690;51.824;6.306;2023-04-27T02:50:44;101975.28;;;16.42;48.40
73455;BME280;61690;51.824;6.306;2023-04-27T02:53:11;101976.88;;;16.46;48.30
73455;BME280;61690;51.824;6.306;2023-04-27T02:55:44;101975.19;;;16.45;48.48
73455;BME280;61690;51.824;6.306;2023-04-27T02:58:11;101974.50;;;16.40;48.86
73455;BME280;61690;51.824;6.306;2023-04-27T03:00:37;101984.94;;;16.42;48.45
73455;BME280;61690;51.824;6.306;2023-04-27T03:03:05;101975.47;;;16.38;48.72
73455;BME280;61690;51.824;6.306;2023-04-27T03:05:30;101965.56;;;16.44;48.82
73455;BME280;61690;51.824;6.306;2023-04-27T03:07:55;101974.25;;;16.46;48.72
73455;BME280;61690;51.824;6.306;2023-04-27T03:10:22;101972.00;;;16.59;48.24
73455;BME280;61690;51.824;6.306;2023-04-27T03:12:47;101965.28;;;16.74;47.88
73455;BME280;61690;51.824;6.306;2023-04-27T03:15:12;101968.09;;;16.92;47.73
73455;BME280;61690;51.824;6.306;2023-04-27T03:17:38;101967.53;;;17.05;46.83
73455;BME280;61690;51.824;6.306;2023-04-27T03:20:03;101970.50;;;17.18;47.05
73455;BME280;61690;51.824;6.306;2023-04-27T03:22:34;101967.28;;;17.32;46.77
73455;BME280;61690;51.824;6.306;2023-04-27T03:25:02;101967.78;;;17.40;46.50
73455;BME280;61690;51.824;6.306;2023-04-27T03:27:28;101971.66;;;17.52;46.08
73455;BME280;61690;51.824;6.306;2023-04-27T03:29:54;101974.00;;;17.58;46.00
73455;BME280;61690;51.824;6.306;2023-04-27T03:32:22;101966.59;;;17.68;46.23
73455;BME280;61690;51.824;6.306;2023-04-27T03:34:47;101966.25;;;17.76;45.88
73455;BME280;61690;51.824;6.306;2023-04-27T03:37:13;101967.66;;;17.83;45.63
73455;BME280;61690;51.824;6.306;2023-04-27T03:39:39;101964.88;;;17.88;45.62
73455;BME280;61690;51.824;6.306;2023-04-27T03:42:05;101975.09;;;17.94;45.25
73455;BME280;61690;51.824;6.306;2023-04-27T03:44:31;101974.75;;;18.01;45.62
73455;BME280;61690;51.824;6.306;2023-04-27T03:46:57;101971.84;;;18.08;45.21
73455;BME280;61690;51.824;6.306;2023-04-27T03:49:24;101973.28;;;18.15;45.15
73455;BME280;61690;51.824;6.306;2023-04-27T03:51:50;101983.69;;;18.18;45.23
73455;BME280;61690;51.824;6.306;2023-04-27T03:54:16;101993.13;;;18.22;44.71
73455;BME280;61690;51.824;6.306;2023-04-27T03:56:42;101990.28;;;18.27;45.25
73455;BME280;61690;51.824;6.306;2023-04-27T03:59:11;101989.13;;;18.32;44.60
73455;BME280;61690;51.824;6.306;2023-04-27T04:01:37;101992.34;;;18.39;44.78
73455;BME280;61690;51.824;6.306;2023-04-27T04:04:04;101989.63;;;18.40;44.73
73455;BME280;61690;51.824;6.306;2023-04-27T04:06:29;101996.63;;;18.41;44.59
73455;BME280;61690;51.824;6.306;2023-04-27T04:08:56;101995.78;;;18.41;44.91
73455;BME280;61690;51.824;6.306;2023-04-27T04:11:22;101993.19;;;18.39;44.82
73455;BME280;61690;51.824;6.306;2023-04-27T04:13:48;102006.50;;;18.36;44.93
73455;BME280;61690;51.824;6.306;2023-04-27T04:16:14;101997.81;;;18.34;45.02
73455;BME280;61690;51.824;6.306;2023-04-27T04:18:39;102001.41;;;18.33;44.96
73455;BME280;61690;51.824;6.306;2023-04-27T04:21:05;102007.34;;;18.37;45.11
73455;BME280;61690;51.824;6.306;2023-04-27T04:23:30;102000.88;;;18.44;44.57
73455;BME280;61690;51.824;6.306;2023-04-27T04:25:57;102004.88;;;18.53;44.34
73455;BME280;61690;51.824;6.306;2023-04-27T04:28:23;102009.84;;;18.59;44.64
73455;BME280;61690;51.824;6.306;2023-04-27T04:30:49;102007.97;;;18.61;44.27
73455;BME280;61690;51.824;6.306;2023-04-27T04:33:15;102005.88;;;18.68;44.47
73455;BME280;61690;51.824;6.306;2023-04-27T04:35:41;102014.50;;;18.71;44.37
73455;BME280;61690;51.824;6.306;2023-04-27T04:38:07;102014.38;;;18.74;44.01
73455;BME280;61690;51.824;6.306;2023-04-27T04:40:32;102013.28;;;18.78;43.81
73455;BME280;61690;51.824;6.306;2023-04-27T04:42:59;102015.81;;;18.82;44.27
73455;BME280;61690;51.824;6.306;2023-04-27T04:45:25;102013.97;;;18.84;44.04
73455;BME280;61690;51.824;6.306;2023-04-27T04:47:51;102013.78;;;18.87;43.90
73455;BME280;61690;51.824;6.306;2023-04-27T04:50:20;102015.50;;;18.88;44.13
73455;BME280;61690;51.824;6.306;2023-04-27T04:52:45;102017.00;;;18.93;43.62
73455;BME280;61690;51.824;6.306;2023-04-27T04:55:10;102022.91;;;18.79;44.68
73455;BME280;61690;51.824;6.306;2023-04-27T04:57:37;102020.34;;;18.97;44.38
73455;BME280;61690;51.824;6.306;2023-04-27T05:00:03;102033.16;;;19.05;44.57
73455;BME280;61690;51.824;6.306;2023-04-27T05:02:30;102025.63;;;19.14;45.04
73455;BME280;61690;51.824;6.306;2023-04-27T05:04:56;102024.53;;;19.18;44.85
73455;BME280;61690;51.824;6.306;2023-04-27T05:07:21;102032.06;;;19.26;45.60
73455;BME280;61690;51.824;6.306;2023-04-27T05:09:46;102035.47;;;19.28;45.91
73455;BME280;61690;51.824;6.306;2023-04-27T05:12:12;102036.34;;;19.29;45.74
73455;BME280;61690;51.824;6.306;2023-04-27T05:14:37;102034.41;;;19.32;45.46
73455;BME280;61690;51.824;6.306;2023-04-27T05:17:02;102041.59;;;19.29;45.85
73455;BME280;61690;51.824;6.306;2023-04-27T05:19:29;102036.34;;;19.29;45.40
73455;BME280;61690;51.824;6.306;2023-04-27T05:21:56;102038.50;;;19.20;43.51
73455;BME280;61690;51.824;6.306;2023-04-27T05:24:21;102036.13;;;19.16;43.49
73455;BME280;61690;51.824;6.306;2023-04-27T05:26:46;102033.38;;;19.17;43.37
73455;BME280;61690;51.824;6.306;2023-04-27T05:29:12;102040.63;;;19.14;43.59
73455;BME280;61690;51.824;6.306;2023-04-27T05:31:38;102035.09;;;19.18;43.81
73455;BME280;61690;51.824;6.306;2023-04-27T05:34:04;102033.53;;;19.14;44.21
73455;BME280;61690;51.824;6.306;2023-04-27T05:36:29;102037.97;;;19.14;44.50
73455;BME280;61690;51.824;6.306;2023-04-27T05:38:54;102039.13;;;19.08;44.60
73455;BME280;61690;51.824;6.306;2023-04-27T05:41:20;102039.97;;;19.09;44.77
73455;BME280;61690;51.824;6.306;2023-04-27T05:43:45;102043.63;;;19.06;45.35
73455;BME280;61690;51.824;6.306;2023-04-27T05:46:15;102032.28;;;19.04;45.60
73455;BME280;61690;51.824;6.306;2023-04-27T05:48:40;102026.41;;;18.99;45.94
73455;BME280;61690;51.824;6.306;2023-04-27T05:51:06;102031.59;;;19.00;45.58
73455;BME280;61690;51.824;6.306;2023-04-27T05:53:32;102038.88;;;18.95;45.97
73455;BME280;61690;51.824;6.306;2023-04-27T05:55:59;102038.09;;;18.93;46.08
73455;BME280;61690;51.824;6.306;2023-04-27T05:58:26;102041.75;;;18.91;46.57
73455;BME280;61690;51.824;6.306;2023-04-27T06:00:53;102043.81;;;18.84;46.28
73455;BME280;61690;51.824;6.306;2023-04-27T06:03:18;102045.88;;;18.77;46.72
73455;BME280;61690;51.824;6.306;2023-04-27T06:05:44;102046.78;;;18.76;46.82
73455;BME280;61690;51.824;6.306;2023-04-27T06:08:11;102046.78;;;18.76;47.02
73455;BME280;61690;51.824;6.306;2023-04-27T06:10:37;102045.22;;;18.72;47.38
73455;BME280;61690;51.824;6.306;2023-04-27T06:13:03;102049.47;;;18.75;47.60
73455;BME280;61690;51.824;6.306;2023-04-27T06:15:29;102048.63;;;18.74;47.68
73455;BME280;61690;51.824;6.306;2023-04-27T06:17:55;102046.13;;;18.71;47.50
73455;BME280;61690;51.824;6.306;2023-04-27T06:20:21;102040.97;;;18.70;47.72
73455;BME280;61690;51.824;6.306;2023-04-27T06:22:46;102041.63;;;18.73;47.83
73455;BME280;61690;51.824;6.306;2023-04-27T06:25:12;102029.59;;;18.68;48.17
73455;BME280;61690;51.824;6.306;2023-04-27T06:27:37;102038.31;;;18.70;48.02
73455;BME280;61690;51.824;6.306;2023-04-27T06:30:04;102036.59;;;18.69;48.07
73455;BME280;61690;51.824;6.306;2023-04-27T06:32:31;102037.44;;;18.69;48.46
73455;BME280;61690;51.824;6.306;2023-04-27T06:34:56;102037.75;;;18.63;48.58
73455;BME280;61690;51.824;6.306;2023-04-27T06:37:22;102033.50;;;18.60;48.15
73455;BME280;61690;51.824;6.306;2023-04-27T06:39:47;102038.88;;;18.57;48.71
73455;BME280;61690;51.824;6.306;2023-04-27T06:42:13;102034.56;;;18.56;48.50
73455;BME280;61690;51.824;6.306;2023-04-27T06:44:39;102034.47;;;18.58;48.86
73455;BME280;61690;51.824;6.306;2023-04-27T06:47:04;102030.13;;;18.57;48.98
73455;BME280;61690;51.824;6.306;2023-04-27T06:49:30;102033.56;;;18.59;48.43
73455;BME280;61690;51.824;6.306;2023-04-27T06:52:00;102038.88;;;18.57;49.03
73455;BME280;61690;51.824;6.306;2023-04-27T06:54:26;102033.63;;;18.57;48.92
73455;BME280;61690;51.824;6.306;2023-04-27T06:56:51;102032.00;;;18.55;48.34
73455;BME280;61690;51.824;6.306;2023-04-27T06:59:19;102028.41;;;18.56;48.61
73455;BME280;61690;51.824;6.306;2023-04-27T07:01:44;102028.56;;;18.53;48.87
73455;BME280;61690;51.824;6.306;2023-04-27T07:04:11;102026.91;;;18.50;48.55
73455;BME280;61690;51.824;6.306;2023-04-27T07:06:37;102037.31;;;18.53;48.82
73455;BME280;61690;51.824;6.306;2023-04-27T07:09:02;102031.28;;;18.51;48.67
73455;BME280;61690;51.824;6.306;2023-04-27T07:11:30;102030.34;;;18.52;49.03
73455;BME280;61690;51.824;6.306;2023-04-27T07:13:55;102030.56;;;18.48;48.60
73455;BME280;61690;51.824;6.306;2023-04-27T07:16:21;102022.88;;;18.43;48.84
73455;BME280;61690;51.824;6.306;2023-04-27T07:18:47;102032.72;;;18.39;48.76
73455;BME280;61690;51.824;6.306;2023-04-27T07:21:13;102041.69;;;18.35;48.80
73455;BME280;61690;51.824;6.306;2023-04-27T07:23:38;102037.34;;;18.34;48.13
73455;BME280;61690;51.824;6.306;2023-04-27T07:26:05;102035.63;;;18.33;48.16
73455;BME280;61690;51.824;6.306;2023-04-27T07:28:32;102033.97;;;18.31;48.34
73455;BME280;61690;51.824;6.306;2023-04-27T07:30:59;102037.75;;;18.25;48.51
73455;BME280;61690;51.824;6.306;2023-04-27T07:33:25;102039.13;;;18.34;48.41
73455;BME280;61690;51.824;6.306;2023-04-27T07:35:52;102050.72;;;18.30;48.25
73455;BME280;61690;51.824;6.306;2023-04-27T07:38:19;102044.69;;;18.28;48.10
73455;BME280;61690;51.824;6.306;2023-04-27T07:40:45;102050.91;;;18.25;48.01
73455;BME280;61690;51.824;6.306;2023-04-27T07:43:11;102056.06;;;18.28;47.90
73455;BME280;61690;51.824;6.306;2023-04-27T07:45:36;102052.00;;;18.21;48.29
73455;BME280;61690;51.824;6.306;2023-04-27T07:48:04;102055.47;;;18.21;47.94
73455;BME280;61690;51.824;6.306;2023-04-27T07:50:30;102053.00;;;18.18;47.88
73455;BME280;61690;51.824;6.306;2023-04-27T07:52:56;102052.94;;;18.20;47.77
73455;BME280;61690;51.824;6.306;2023-04-27T07:55:22;102052.16;;;18.18;48.07
73455;BME280;61690;51.824;6.306;2023-04-27T07:57:49;102050.28;;;18.20;47.63
73455;BME280;61690;51.824;6.306;2023-04-27T08:00:14;102047.84;;;18.15;47.98
73455;BME280;61690;51.824;6.306;2023-04-27T08:02:40;102044.31;;;18.16;48.00
73455;BME280;61690;51.824;6.306;2023-04-27T08:05:05;102035.53;;;18.16;47.72
73455;BME280;61690;51.824;6.306;2023-04-27T08:07:33;102040.00;;;18.14;48.01
73455;BME280;61690;51.824;6.306;2023-04-27T08:09:59;102036.59;;;18.12;47.59
73455;BME280;61690;51.824;6.306;2023-04-27T08:12:24;102043.59;;;18.13;47.78
73455;BME280;61690;51.824;6.306;2023-04-27T08:14:49;102035.81;;;18.10;47.89
73455;BME280;61690;51.824;6.306;2023-04-27T08:17:16;102038.31;;;18.13;47.86
73455;BME280;61690;51.824;6.306;2023-04-27T08:19:42;102034.75;;;18.14;47.21
73455;BME280;61690;51.824;6.306;2023-04-27T08:22:08;102043.59;;;18.13;47.30
73455;BME280;61690;51.824;6.306;2023-04-27T08:24:34;102037.53;;;18.11;47.75
73455;BME280;61690;51.824;6.306;2023-04-27T08:27:01;102038.44;;;18.10;47.61
73455;BME280;61690;51.824;6.306;2023-04-27T08:29:28;102042.94;;;18.08;47.42
73455;BME280;61690;51.824;6.306;2023-04-27T08:31:53;102042.94;;;18.08;47.80
73455;BME280;61690;51.824;6.306;2023-04-27T08:34:19;102041.13;;;18.08;47.17
73455;BME280;61690;51.824;6.306;2023-04-27T08:36:44;102040.28;;;18.08;47.59
73455;BME280;61690;51.824;6.306;2023-04-27T08:39:10;102043.00;;;18.06;47.21
73455;BME280;61690;51.824;6.306;2023-04-27T08:41:35;102045.78;;;18.03;47.35
73455;BME280;61690;51.824;6.306;2023-04-27T08:44:06;102036.88;;;18.06;47.36
73455;BME280;61690;51.824;6.306;2023-04-27T08:46:32;102041.38;;;18.03;46.98
73455;BME280;61690;51.824;6.306;2023-04-27T08:48:58;102047.41;;;18.06;47.24
73455;BME280;61690;51.824;6.306;2023-04-27T08:51:23;102038.72;;;18.03;47.15
73455;BME280;61690;51.824;6.306;2023-04-27T08:53:54;102043.16;;;18.03;47.48
73455;BME280;61690;51.824;6.306;2023-04-27T08:56:23;102041.50;;;18.00;47.33
73455;BME280;61690;51.824;6.306;2023-04-27T08:58:49;102036.03;;;18.05;47.22
73455;BME280;61690;51.824;6.306;2023-04-27T09:01:15;102040.56;;;18.01;47.20
73455;BME280;61690;51.824;6.306;2023-04-27T09:03:41;102031.78;;;18.02;47.38
73455;BME280;61690;51.824;6.306;2023-04-27T09:06:06;102024.84;;;18.00;46.93
73455;BME280;61690;51.824;6.306;2023-04-27T09:08:45;102030.13;;;18.00;47.06
73455;BME280;61690;51.824;6.306;2023-04-27T09:11:14;102038.84;;;18.00;47.05
73455;BME280;61690;51.824;6.306;2023-04-27T09:13:42;102031.78;;;18.02;46.65
73455;BME280;61690;51.824;6.306;2023-04-27T09:16:13;102031.78;;;18.02;47.02
73455;BME280;61690;51.824;6.306;2023-04-27T09:18:41;102025.63;;;18.02;46.73
73455;BME280;61690;51.824;6.306;2023-04-27T09:21:06;102022.22;;;18.00;46.76
73455;BME280;61690;51.824;6.306;2023-04-27T09:23:34;102029.13;;;18.02;46.61
73455;BME280;61690;51.824;6.306;2023-04-27T09:26:02;102024.00;;;17.99;46.81
73455;BME280;61690;51.824;6.306;2023-04-27T09:28:29;102030.03;;;18.01;46.86
73455;BME280;61690;51.824;6.306;2023-04-27T09:31:01;102025.69;;;18.00;46.86
73455;BME280;61690;51.824;6.306;2023-04-27T09:33:27;102023.94;;;18.01;46.87
73455;BME280;61690;51.824;6.306;2023-04-27T09:35:54;102023.78;;;18.04;46.63
73455;BME280;61690;51.824;6.306;2023-04-27T09:38:21;102017.78;;;18.00;46.46
73455;BME280;61690;51.824;6.306;2023-04-27T09:40:48;102013.41;;;18.01;46.66
73455;BME280;61690;51.824;6.306;2023-04-27T09:43:14;102007.19;;;18.02;46.48
73455;BME280;61690;51.824;6.306;2023-04-27T09:45:40;102010.72;;;18.02;46.62
73455;BME280;61690;51.824;6.306;2023-04-27T09:48:07;102003.72;;;18.01;46.64
73455;BME280;61690;51.824;6.306;2023-04-27T09:50:43;102005.44;;;18.02;46.74
73455;BME280;61690;51.824;6.306;2023-04-27T09:53:11;102000.09;;;18.04;46.25
73455;BME280;61690;51.824;6.306;2023-04-27T10:01:20;101995.81;;;18.01;46.51
73455;BME280;61690;51.824;6.306;2023-04-27T10:04:07;101987.69;;;18.06;46.27
73455;BME280;61690;51.824;6.306;2023-04-27T10:09:12;101993.91;;;18.05;46.49
73455;BME280;61690;51.824;6.306;2023-04-27T10:11:40;101996.47;;;18.07;46.60
73455;BME280;61690;51.824;6.306;2023-04-27T10:14:07;101998.16;;;18.08;46.04
73455;BME280;61690;51.824;6.306;2023-04-27T10:16:53;101993.91;;;18.05;46.39
73455;BME280;61690;51.824;6.306;2023-04-27T10:19:20;101980.69;;;18.07;46.29
73455;BME280;61690;51.824;6.306;2023-04-27T10:22:01;101992.06;;;18.07;46.46
73455;BME280;61690;51.824;6.306;2023-04-27T10:24:37;101986.78;;;18.07;46.14
73455;BME280;61690;51.824;6.306;2023-04-27T10:27:07;101981.53;;;18.07;46.50
73455;BME280;61690;51.824;6.306;2023-04-27T10:29:41;101985.16;;;18.05;46.12
73455;BME280;61690;51.824;6.306;2023-04-27T10:32:09;101985.94;;;18.07;46.39
73455;BME280;61690;51.824;6.306;2023-04-27T10:34:35;101981.47;;;18.09;45.90
73455;BME280;61690;51.824;6.306;2023-04-27T10:37:09;101979.69;;;18.09;46.33
73455;BME280;61690;51.824;6.306;2023-04-27T10:39:37;101986.72;;;18.09;45.97
73455;BME280;61690;51.824;6.306;2023-04-27T10:42:03;101983.16;;;18.10;45.75
73455;BME280;61690;51.824;6.306;2023-04-27T10:44:30;101978.75;;;18.10;46.08
73455;BME280;61690;51.824;6.306;2023-04-27T10:46:57;101992.91;;;18.08;45.91
73455;BME280;61690;51.824;6.306;2023-04-27T10:49:26;101983.16;;;18.10;45.97
73455;BME280;61690;51.824;6.306;2023-04-27T10:51:52;101984.09;;;18.09;46.18
73455;BME280;61690;51.824;6.306;2023-04-27T10:54:18;101980.53;;;18.10;45.87
73455;BME280;61690;51.824;6.306;2023-04-27T10:56:44;101979.75;;;18.08;45.85
73455;BME280;61690;51.824;6.306;2023-04-27T10:59:09;101974.41;;;18.09;46.22
73455;BME280;61690;51.824;6.306;2023-04-27T11:01:35;101974.41;;;18.09;45.99
73455;BME280;61690;51.824;6.306;2023-04-27T11:04:01;101975.13;;;18.13;45.79
73455;BME280;61690;51.824;6.306;2023-04-27T11:06:28;101975.91;;;18.15;45.68
73455;BME280;61690;51.824;6.306;2023-04-27T11:08:55;101967.28;;;18.11;46.31
73455;BME280;61690;51.824;6.306;2023-04-27T11:11:21;101971.72;;;18.11;46.12
73455;BME280;61690;51.824;6.306;2023-04-27T11:13:47;101967.28;;;18.11;45.92
73455;BME280;61690;51.824;6.306;2023-04-27T11:16:14;101970.00;;;18.10;45.66
73455;BME280;61690;51.824;6.306;2023-04-27T11:18:40;101970.69;;;18.13;45.68
73455;BME280;61690;51.824;6.306;2023-04-27T11:21:08;101960.16;;;18.13;45.92
73455;BME280;61690;51.824;6.306;2023-04-27T11:23:37;101947.84;;;18.14;45.89
73455;BME280;61690;51.824;6.306;2023-04-27T11:26:18;101951.44;;;18.13;45.63
73455;BME280;61690;51.824;6.306;2023-04-27T11:29:01;101953.28;;;18.11;45.42
73455;BME280;61690;51.824;6.306;2023-04-27T11:34:22;101953.28;;;18.11;45.96
73455;BME280;61690;51.824;6.306;2023-04-27T11:37:02;101950.47;;;18.14;45.84
73455;BME280;61690;51.824;6.306;2023-04-27T11:39:34;101950.47;;;18.14;45.88
73455;BME280;61690;51.824;6.306;2023-04-27T11:45:12;101937.25;;;18.15;45.64
73455;BME280;61690;51.824;6.306;2023-04-27T11:47:37;101939.88;;;18.15;45.64
73455;BME280;61690;51.824;6.306;2023-04-27T11:50:05;101933.00;;;18.13;45.42
73455;BME280;61690;51.824;6.306;2023-04-27T11:52:36;101931.00;;;18.18;45.28
73455;BME280;61690;51.824;6.306;2023-04-27T11:55:02;101931.78;;;18.20;45.71
73455;BME280;61690;51.824;6.306;2023-04-27T11:57:31;101927.50;;;18.17;45.74
73455;BME280;61690;51.824;6.306;2023-04-27T11:59:57;101924.78;;;18.19;45.33
73455;BME280;61690;51.824;6.306;2023-04-27T12:02:24;101930.00;;;18.20;45.45
73455;BME280;61690;51.824;6.306;2023-04-27T12:04:50;101917.75;;;18.19;45.21
73455;BME280;61690;51.824;6.306;2023-04-27T12:07:16;101920.31;;;18.21;45.51
73455;BME280;61690;51.824;6.306;2023-04-27T12:09:41;101920.31;;;18.21;45.24
73455;BME280;61690;51.824;6.306;2023-04-27T12:12:09;101927.28;;;18.22;45.36
73455;BME280;61690;51.824;6.306;2023-04-27T12:14:35;101924.44;;;18.27;45.01
73455;BME280;61690;51.824;6.306;2023-04-27T12:17:01;101919.16;;;18.27;45.08
73455;BME280;61690;51.824;6.306;2023-04-27T12:19:28;101913.97;;;18.25;45.14
73455;BME280;61690;51.824;6.306;2023-04-27T12:21:56;101911.19;;;18.28;44.94
73455;BME280;61690;51.824;6.306;2023-04-27T12:24:22;101916.53;;;18.27;45.17
73455;BME280;61690;51.824;6.306;2023-04-27T12:26:47;101906.84;;;18.27;45.15
73455;BME280;61690;51.824;6.306;2023-04-27T12:29:14;101897.19;;;18.28;45.05
73455;BME280;61690;51.824;6.306;2023-04-27T12:31:40;101898.94;;;18.27;44.59
73455;BME280;61690;51.824;6.306;2023-04-27T12:34:05;101898.94;;;18.27;45.05
73455;BME280;61690;51.824;6.306;2023-04-27T12:36:31;101889.13;;;18.31;45.07
73455;BME280;61690;51.824;6.306;2023-04-27T12:38:59;101897.84;;;18.31;44.59
73455;BME280;61690;51.824;6.306;2023-04-27T12:41:26;101900.50;;;18.31;44.90
73455;BME280;61690;51.824;6.306;2023-04-27T12:43:51;101896.09;;;18.32;44.71
73455;BME280;61690;51.824;6.306;2023-04-27T12:46:17;101888.91;;;18.35;44.43
73455;BME280;61690;51.824;6.306;2023-04-27T12:48:43;101892.53;;;18.33;44.68
73455;BME280;61690;51.824;6.306;2023-04-27T12:51:09;101885.50;;;18.33;44.71
73455;BME280;61690;51.824;6.306;2023-04-27T12:53:35;101887.97;;;18.36;44.63
73455;BME280;61690;51.824;6.306;2023-04-27T12:56:01;101893.09;;;18.39;44.48
73455;BME280;61690;51.824;6.306;2023-04-27T12:58:27;101881.72;;;18.39;44.29
73455;BME280;61690;51.824;6.306;2023-04-27T13:00:55;101886.09;;;18.38;44.45